Time;durP1;ratioP1;P1;durP2;ratioP2;P2;SDS_P1;SDS_P2;PMS_P1;PMS_P2;Temp;Humidity;BMP_temperature;BMP_pressure;BME280_temperature;BME280_humidity;BME280_pressure;Samples;Min_cycle;Max_cycle;Signal;HPM_P1;HPM_P2
2020/12/21 00:01:17;;;;;;;5.80;1.58;;;15.90;58.40;;;;;;4836637;29;20071;-71
2020/12/21 00:03:45;;;;;;;5.35;1.40;;;15.90;58.30;;;;;;4856472;29;20053;-73
2020/12/21 00:06:12;;;;;;;4.70;2.00;;;15.90;58.20;;;;;;4844780;29;20050;-71
2020/12/21 00:08:38;;;;;;;3.97;1.77;;;15.90;58.20;;;;;;4849179;29;20065;-72
2020/12/21 00:11:04;;;;;;;4.03;1.42;;;15.90;58.20;;;;;;4862785;29;20111;-73
2020/12/21 00:13:30;;;;;;;3.75;1.20;;;15.90;58.80;;;;;;4858555;29;20456;-72
2020/12/21 00:15:56;;;;;;;3.72;1.60;;;15.90;58.20;;;;;;4843778;29;20121;-72
2020/12/21 00:18:22;;;;;;;3.97;2.03;;;15.90;58.30;;;;;;4860723;29;20059;-73
2020/12/21 00:20:48;;;;;;;6.95;1.75;;;15.90;58.30;;;;;;4862153;29;20490;-71
2020/12/21 00:23:15;;;;;;;3.75;1.02;;;15.90;58.20;;;;;;4826262;29;20070;-72
2020/12/21 00:25:41;;;;;;;5.20;1.48;;;15.90;58.20;;;;;;4843949;29;20057;-72
2020/12/21 00:28:07;;;;;;;4.05;1.27;;;15.80;58.20;;;;;;4860644;29;20054;-72
2020/12/21 00:30:33;;;;;;;4.40;1.95;;;15.80;58.20;;;;;;4862570;29;20038;-72
2020/12/21 00:32:59;;;;;;;3.80;1.50;;;15.80;58.20;;;;;;4859914;29;20054;-72
2020/12/21 00:35:25;;;;;;;6.22;2.00;;;15.80;58.20;;;;;;4862822;29;20060;-74
2020/12/21 00:37:50;;;;;;;4.50;1.52;;;15.80;58.30;;;;;;4861808;29;20050;-72
2020/12/21 00:40:16;;;;;;;4.43;1.63;;;15.80;58.30;;;;;;4862699;29;20084;-73
2020/12/21 00:42:45;;;;;;;4.80;1.30;;;15.80;58.30;;;;;;4860722;29;20508;-72
2020/12/21 00:45:11;;;;;;;5.03;1.70;;;15.80;58.30;;;;;;4862739;29;20060;-74
2020/12/21 00:47:37;;;;;;;6.60;1.88;;;15.80;58.20;;;;;;4861686;29;20049;-72
2020/12/21 00:50:05;;;;;;;4.18;1.35;;;15.80;58.30;;;;;;4862406;29;20137;-71
2020/12/21 00:52:31;;;;;;;5.28;1.77;;;15.80;58.30;;;;;;4876094;29;20049;-72
2020/12/21 00:54:56;;;;;;;6.18;2.00;;;15.80;58.30;;;;;;4862442;29;20046;-73
2020/12/21 00:57:22;;;;;;;4.18;1.60;;;15.80;58.30;;;;;;4861399;29;20046;-72
2020/12/21 00:59:48;;;;;;;2.40;1.10;;;15.80;58.30;;;;;;4861108;29;20053;-71
2020/12/21 01:02:14;;;;;;;3.97;1.95;;;15.80;58.20;;;;;;4860773;29;20054;-72
2020/12/21 01:04:39;;;;;;;5.35;1.40;;;15.80;58.20;;;;;;4861898;29;20053;-72
2020/12/21 01:07:05;;;;;;;3.75;1.45;;;15.80;58.10;;;;;;4861285;29;20510;-71
2020/12/21 01:09:31;;;;;;;4.13;1.60;;;15.80;58.10;;;;;;4861801;29;20379;-72
2020/12/21 01:11:57;;;;;;;3.92;1.40;;;15.80;58.00;;;;;;4862720;29;20049;-73
2020/12/21 01:14:23;;;;;;;4.85;1.38;;;15.80;58.00;;;;;;4860397;29;20091;-72
2020/12/21 01:16:49;;;;;;;5.28;2.17;;;15.80;58.10;;;;;;4864167;29;20105;-73
2020/12/21 01:19:14;;;;;;;5.75;1.23;;;15.80;58.10;;;;;;4866225;29;20069;-74
2020/12/21 01:21:40;;;;;;;4.78;1.55;;;15.80;58.10;;;;;;4865056;29;20093;-73
2020/12/21 01:24:06;;;;;;;5.82;2.00;;;15.80;58.10;;;;;;4864898;29;20077;-73
2020/12/21 01:26:32;;;;;;;3.50;1.38;;;15.80;58.00;;;;;;4863304;29;20058;-73
2020/12/21 01:28:58;;;;;;;6.95;1.65;;;15.80;58.00;;;;;;4864732;29;20049;-72
2020/12/21 01:31:24;;;;;;;4.07;1.45;;;15.80;58.00;;;;;;4864824;29;20360;-74
2020/12/21 01:33:51;;;;;;;3.17;1.15;;;15.80;58.00;;;;;;4864004;29;20094;-72
2020/12/21 01:36:22;;;;;;;4.70;1.48;;;15.80;57.90;;;;;;4865227;29;20052;-72
2020/12/21 01:38:48;;;;;;;4.93;1.80;;;15.80;57.90;;;;;;4864700;29;20045;-73
2020/12/21 01:41:14;;;;;;;6.40;1.73;;;15.80;57.90;;;;;;4865120;29;20456;-72
2020/12/21 01:43:40;;;;;;;4.93;1.48;;;15.80;57.90;;;;;;4864543;29;20056;-72
2020/12/21 01:46:09;;;;;;;5.70;1.48;;;15.80;57.90;;;;;;4864548;29;20049;-72
2020/12/21 01:48:35;;;;;;;4.18;1.40;;;15.80;57.80;;;;;;4865010;29;20060;-74
2020/12/21 01:51:05;;;;;;;4.13;1.65;;;15.80;57.80;;;;;;4863936;29;20074;-73
2020/12/21 01:53:33;;;;;;;4.28;1.50;;;15.80;57.80;;;;;;4862370;29;20459;-72
2020/12/21 01:56:03;;;;;;;5.75;1.65;;;15.80;57.80;;;;;;4864956;29;20049;-73
2020/12/21 01:58:30;;;;;;;5.20;1.60;;;15.80;57.80;;;;;;4863920;29;20053;-73
2020/12/21 02:01:00;;;;;;;7.43;1.98;;;15.80;57.80;;;;;;4863387;29;20057;-72
2020/12/21 02:03:26;;;;;;;4.57;1.60;;;15.80;57.80;;;;;;4858298;29;20054;-71
2020/12/21 02:05:52;;;;;;;5.50;1.17;;;15.80;57.80;;;;;;4863794;29;20053;-73
2020/12/21 02:08:18;;;;;;;6.25;1.90;;;15.80;57.80;;;;;;4862800;29;20106;-72
2020/12/21 02:10:44;;;;;;;5.95;1.65;;;15.80;57.70;;;;;;4864832;29;20374;-72
2020/12/21 02:13:10;;;;;;;5.03;1.50;;;15.70;57.60;;;;;;4864181;29;20057;-72
2020/12/21 02:15:36;;;;;;;4.25;1.58;;;15.80;57.70;;;;;;4869640;29;20041;-72
2020/12/21 02:18:02;;;;;;;5.25;1.80;;;15.80;57.70;;;;;;4883458;29;20056;-73
2020/12/21 02:20:30;;;;;;;5.28;1.50;;;15.80;57.60;;;;;;4867801;29;20050;-73
2020/12/21 02:22:56;;;;;;;5.43;1.27;;;15.80;57.60;;;;;;4863350;29;20053;-73
2020/12/21 02:25:22;;;;;;;4.40;1.48;;;15.80;57.50;;;;;;4862818;29;20056;-72
2020/12/21 02:27:48;;;;;;;5.13;1.45;;;15.80;57.60;;;;;;4863752;29;20061;-72
2020/12/21 02:30:13;;;;;;;4.43;1.27;;;15.80;57.50;;;;;;4863670;29;20053;-73
2020/12/21 02:32:39;;;;;;;5.55;1.77;;;15.70;57.50;;;;;;4864053;29;20066;-72
2020/12/21 02:35:06;;;;;;;6.78;1.65;;;15.70;57.50;;;;;;4844616;29;20367;-72
2020/12/21 02:37:33;;;;;;;4.68;1.33;;;15.70;57.50;;;;;;4846409;29;20061;-73
2020/12/21 02:39:59;;;;;;;4.45;2.00;;;15.70;57.40;;;;;;4844797;29;20046;-73
2020/12/21 02:42:24;;;;;;;5.13;1.40;;;15.70;57.40;;;;;;4849119;29;20057;-72
2020/12/21 02:44:50;;;;;;;6.78;1.90;;;15.70;57.40;;;;;;4844839;29;20045;-72
2020/12/21 02:47:16;;;;;;;4.38;1.73;;;15.70;57.40;;;;;;4856560;29;20390;-72
2020/12/21 02:49:42;;;;;;;4.15;1.83;;;15.70;57.40;;;;;;4845294;29;20125;-74
2020/12/21 02:52:08;;;;;;;4.88;1.50;;;15.70;57.30;;;;;;4863396;29;20073;-73
2020/12/21 02:54:34;;;;;;;4.20;1.38;;;15.70;57.30;;;;;;4844728;29;20408;-72
2020/12/21 02:57:00;;;;;;;8.95;2.03;;;15.70;57.30;;;;;;4844270;29;20056;-73
2020/12/21 02:59:25;;;;;;;3.03;1.40;;;15.70;57.20;;;;;;4845311;29;20045;-73
2020/12/21 03:01:51;;;;;;;3.10;1.13;;;15.70;57.30;;;;;;4863883;29;20371;-72
2020/12/21 03:04:17;;;;;;;4.72;1.27;;;15.70;57.20;;;;;;4846979;29;20356;-72
2020/12/21 03:06:43;;;;;;;4.15;1.33;;;15.70;57.20;;;;;;4863736;29;20080;-72
2020/12/21 03:09:09;;;;;;;5.75;1.45;;;15.70;57.20;;;;;;4863029;29;20136;-72
2020/12/21 03:11:36;;;;;;;2.78;1.20;;;15.70;57.20;;;;;;4862586;29;20056;-71
2020/12/21 03:14:02;;;;;;;5.10;1.40;;;15.70;57.10;;;;;;4862679;29;20049;-72
2020/12/21 03:16:27;;;;;;;4.72;1.17;;;15.70;57.10;;;;;;4859069;29;20049;-72
2020/12/21 03:18:53;;;;;;;3.53;1.17;;;15.70;57.00;;;;;;4861925;29;20053;-72
2020/12/21 03:21:19;;;;;;;3.83;1.55;;;15.70;57.10;;;;;;4854237;29;20428;-73
2020/12/21 03:23:45;;;;;;;4.45;1.40;;;15.70;57.10;;;;;;4861497;29;20086;-71
2020/12/21 03:26:11;;;;;;;3.83;1.20;;;15.70;57.10;;;;;;4863200;29;20049;-73
2020/12/21 03:28:37;;;;;;;3.50;1.33;;;15.70;57.00;;;;;;4862276;29;20053;-73
2020/12/21 03:31:03;;;;;;;3.60;1.50;;;15.70;57.00;;;;;;4863017;29;20057;-73
2020/12/21 03:33:28;;;;;;;3.92;1.17;;;15.70;57.00;;;;;;4860372;29;20082;-71
2020/12/21 03:35:54;;;;;;;4.30;1.40;;;15.70;57.00;;;;;;4853388;29;20112;-72
2020/12/21 03:38:20;;;;;;;6.88;1.70;;;15.70;57.10;;;;;;4849920;29;20056;-72
2020/12/21 03:40:46;;;;;;;4.35;1.67;;;15.60;56.90;;;;;;4862357;29;20050;-72
2020/12/21 03:43:11;;;;;;;2.85;1.08;;;15.70;56.90;;;;;;4855944;29;20058;-71
2020/12/21 03:45:37;;;;;;;4.18;1.20;;;15.70;56.90;;;;;;4849338;29;20085;-71
2020/12/21 03:48:03;;;;;;;3.65;1.58;;;15.70;56.90;;;;;;4857907;29;20053;-74
2020/12/21 03:50:29;;;;;;;3.50;1.45;;;15.70;56.90;;;;;;4862281;29;20045;-72
2020/12/21 03:52:55;;;;;;;4.13;1.40;;;15.70;56.90;;;;;;4851151;29;20081;-72
2020/12/21 03:55:21;;;;;;;3.88;1.75;;;15.60;56.80;;;;;;4856796;29;20413;-73
2020/12/21 03:57:47;;;;;;;5.53;1.90;;;15.70;56.90;;;;;;4862932;29;20120;-72
2020/12/21 04:00:12;;;;;;;3.95;1.70;;;15.70;56.90;;;;;;4861842;29;20109;-72
2020/12/21 04:02:38;;;;;;;4.60;1.55;;;15.60;56.80;;;;;;4851671;29;20459;-73
2020/12/21 04:05:04;;;;;;;3.45;1.48;;;15.60;56.80;;;;;;4844386;29;20056;-73
2020/12/21 04:07:31;;;;;;;5.75;2.42;;;15.70;56.80;;;;;;4857237;29;20060;-72
2020/12/21 04:09:57;;;;;;;4.57;1.42;;;15.70;56.80;;;;;;4863036;29;20367;-74
2020/12/21 04:12:23;;;;;;;5.63;1.83;;;15.60;56.70;;;;;;4848910;29;20050;-74
2020/12/21 04:14:49;;;;;;;4.72;2.17;;;15.70;56.80;;;;;;4846049;29;20475;-72
2020/12/21 04:17:15;;;;;;;5.20;2.00;;;15.70;56.80;;;;;;4859760;29;20065;-72
2020/12/21 04:19:40;;;;;;;4.53;1.83;;;15.70;56.70;;;;;;4862146;29;20085;-72
2020/12/21 04:22:07;;;;;;;6.00;1.83;;;15.70;56.80;;;;;;4851987;29;20042;-74
2020/12/21 04:24:33;;;;;;;6.72;2.28;;;15.70;56.70;;;;;;4844790;29;20077;-73
2020/12/21 04:26:58;;;;;;;7.35;2.15;;;15.70;56.70;;;;;;4856779;29;20100;-72
2020/12/21 04:29:24;;;;;;;4.00;1.85;;;15.70;56.70;;;;;;4851736;29;20045;-73
2020/12/21 04:31:54;;;;;;;9.02;2.50;;;15.70;56.70;;;;;;4849379;29;20045;-73
2020/12/21 04:34:22;;;;;;;4.75;2.20;;;15.70;56.60;;;;;;4850197;29;20121;-73
2020/12/21 04:36:48;;;;;;;6.38;2.10;;;15.70;56.60;;;;;;4858258;29;20045;-74
2020/12/21 04:39:14;;;;;;;4.78;2.03;;;15.70;56.70;;;;;;4858845;29;20082;-72
2020/12/21 04:41:40;;;;;;;5.22;2.40;;;15.70;56.60;;;;;;4851083;29;20084;-72
2020/12/21 04:44:06;;;;;;;5.88;2.47;;;15.70;56.60;;;;;;4862853;29;20392;-71
2020/12/21 04:46:32;;;;;;;4.28;2.25;;;15.70;56.60;;;;;;4856394;29;20041;-72
2020/12/21 04:49:00;;;;;;;8.50;3.30;;;15.60;56.60;;;;;;4854754;29;20346;-72
2020/12/21 04:51:33;;;;;;;6.50;2.65;;;15.70;56.70;;;;;;4850129;29;20132;-71
2020/12/21 04:53:59;;;;;;;4.90;1.98;;;15.70;56.70;;;;;;4863306;29;20073;-73
2020/12/21 04:56:25;;;;;;;5.82;2.72;;;15.70;56.70;;;;;;4863521;29;20400;-73
2020/12/21 04:58:51;;;;;;;6.47;2.50;;;15.60;56.60;;;;;;4864165;29;20436;-74
2020/12/21 05:01:17;;;;;;;5.25;2.72;;;15.60;56.60;;;;;;4858923;29;20109;-72
2020/12/21 05:03:49;;;;;;;8.82;2.80;;;15.70;56.70;;;;;;4847305;29;20046;-72
2020/12/21 05:06:15;;;;;;;7.53;2.80;;;15.70;56.70;;;;;;4846993;29;20054;-73
2020/12/21 05:08:41;;;;;;;6.90;2.33;;;15.70;56.80;;;;;;4846255;29;20446;-74
2020/12/21 05:11:07;;;;;;;7.72;2.70;;;15.70;56.90;;;;;;4847450;29;20050;-72
2020/12/21 05:13:34;;;;;;;6.88;2.80;;;15.70;56.90;;;;;;4846558;29;20061;-71
2020/12/21 05:16:01;;;;;;;9.63;2.53;;;15.70;56.90;;;;;;4846693;29;20050;-74
2020/12/21 05:18:34;;;;;;;8.95;2.45;;;15.70;57.10;;;;;;4846677;29;20364;-72
2020/12/21 05:21:01;;;;;;;6.35;2.50;;;15.70;57.20;;;;;;4846768;29;20124;-72
2020/12/21 05:23:27;;;;;;;9.23;2.33;;;15.80;57.30;;;;;;4846729;29;20077;-73
2020/12/21 05:26:06;;;;;;;10.32;2.50;;;15.80;57.20;;;;;;4847112;29;20442;-72
2020/12/21 05:28:52;;;;;;;12.30;2.33;;;15.90;57.40;;;;;;4846533;29;20111;-72
2020/12/21 05:31:18;;;;;;;10.75;2.10;;;16.00;57.50;;;;;;4846113;29;20050;-74
2020/12/21 05:34:04;;;;;;;5.82;2.08;;;16.10;57.60;;;;;;4846366;29;20060;-73
2020/12/21 05:36:31;;;;;;;8.50;2.08;;;16.20;57.60;;;;;;4846348;29;20057;-73
2020/12/21 05:38:59;;;;;;;9.63;1.90;;;16.40;57.80;;;;;;4846229;29;20061;-74
2020/12/21 05:41:25;;;;;;;7.28;1.52;;;16.50;57.80;;;;;;4846350;29;20455;-75
2020/12/21 05:43:52;;;;;;;6.32;1.85;;;16.50;57.90;;;;;;4846633;29;20046;-75
2020/12/21 05:46:19;;;;;;;5.68;1.45;;;16.60;58.00;;;;;;4846344;29;20053;-74
2020/12/21 05:48:55;;;;;;;9.38;2.45;;;16.70;58.20;;;;;;4846183;29;20072;-72
2020/12/21 05:51:33;;;;;;;10.98;2.05;;;16.70;58.40;;;;;;4846750;29;20054;-74
2020/12/21 05:54:01;;;;;;;10.93;2.17;;;16.70;58.30;;;;;;4845981;29;20121;-72
2020/12/21 05:56:29;;;;;;;5.50;1.52;;;16.80;58.40;;;;;;4845869;29;20046;-73
2020/12/21 05:58:56;;;;;;;6.43;1.95;;;16.80;58.50;;;;;;4845526;29;20073;-73
2020/12/21 06:01:22;;;;;;;8.82;2.05;;;16.90;58.70;;;;;;4844152;29;20396;-74
2020/12/21 06:03:52;;;;;;;7.68;1.65;;;16.90;58.70;;;;;;4846204;29;20466;-75
2020/12/21 06:06:24;;;;;;;10.63;2.00;;;16.90;58.80;;;;;;4846519;29;20139;-74
2020/12/21 06:08:55;;;;;;;4.05;1.42;;;16.90;58.90;;;;;;4841782;29;20372;-74
2020/12/21 06:11:23;;;;;;;10.88;2.45;;;17.00;59.00;;;;;;4845740;29;20368;-72
2020/12/21 06:13:49;;;;;;;6.20;2.22;;;17.10;59.00;;;;;;4845757;29;20054;-72
2020/12/21 06:16:17;;;;;;;8.18;1.75;;;17.10;59.10;;;;;;4843164;29;20133;-75
2020/12/21 06:18:43;;;;;;;11.30;2.38;;;17.20;59.30;;;;;;4834431;29;20042;-72
2020/12/21 06:21:09;;;;;;;14.55;1.98;;;17.30;59.10;;;;;;4840077;29;20426;-74
2020/12/21 06:23:39;;;;;;;10.07;2.05;;;17.30;58.90;;;;;;4843797;29;20038;-76
2020/12/21 06:26:11;;;;;;;16.52;2.53;;;17.30;58.90;;;;;;4845678;29;20061;-73
2020/12/21 06:28:38;;;;;;;12.68;2.17;;;17.30;59.10;;;;;;4854495;29;20057;-72
2020/12/21 06:31:18;;;;;;;11.80;2.53;;;17.30;59.00;;;;;;4864550;29;20065;-74
2020/12/21 06:33:46;;;;;;;12.93;2.05;;;17.40;59.20;;;;;;4863644;29;20073;-73
2020/12/21 06:36:13;;;;;;;10.70;2.33;;;17.40;59.20;;;;;;4845719;29;20375;-71
2020/12/21 06:38:57;;;;;;;11.75;2.15;;;17.40;59.10;;;;;;4845549;29;20050;-72
2020/12/21 06:41:25;;;;;;;7.25;1.83;;;17.40;59.20;;;;;;4846350;29;20205;-72
2020/12/21 06:43:54;;;;;;;11.40;2.45;;;17.40;59.20;;;;;;4846557;29;20118;-73
2020/12/21 06:46:21;;;;;;;9.52;2.17;;;17.40;59.20;;;;;;4845638;29;20042;-72
2020/12/21 06:48:59;;;;;;;8.13;2.00;;;17.40;59.10;;;;;;4859560;29;20045;-71
2020/12/21 06:51:24;;;;;;;10.40;2.40;;;17.40;59.20;;;;;;4864063;29;20080;-70
2020/12/21 06:54:01;;;;;;;13.60;2.00;;;17.40;59.20;;;;;;4863621;29;20069;-71
2020/12/21 06:56:28;;;;;;;15.25;2.42;;;17.40;59.20;;;;;;4850171;29;20106;-71
2020/12/21 06:58:58;;;;;;;12.35;2.50;;;17.40;59.10;;;;;;4844897;29;20145;-73
2020/12/21 07:01:26;;;;;;;14.20;2.53;;;17.40;59.00;;;;;;4827439;29;20464;-71
2020/12/21 07:03:53;;;;;;;15.98;2.30;;;17.40;59.00;;;;;;4856684;29;20061;-71
2020/12/21 07:06:19;;;;;;;10.98;1.98;;;17.40;59.10;;;;;;4845166;29;20085;-71
2020/12/21 07:08:46;;;;;;;11.63;2.60;;;17.50;59.00;;;;;;4846211;29;20200;-71
2020/12/21 07:11:21;;;;;;;22.55;3.00;;;17.40;59.00;;;;;;4862613;29;20056;-70
2020/12/21 07:13:49;;;;;;;10.02;2.28;;;17.40;59.00;;;;;;4863054;29;20110;-70
2020/12/21 07:16:19;;;;;;;13.38;2.63;;;17.40;58.60;;;;;;4845696;29;20054;-70
2020/12/21 07:18:48;;;;;;;13.13;2.80;;;17.40;58.50;;;;;;4844614;29;20448;-73
2020/12/21 07:21:15;;;;;;;11.82;2.90;;;17.40;58.50;;;;;;4850131;29;20090;-72
2020/12/21 07:23:42;;;;;;;13.13;2.53;;;17.40;58.40;;;;;;4858833;29;20042;-72
2020/12/21 07:26:09;;;;;;;9.65;3.08;;;17.40;58.50;;;;;;4860588;29;20072;-72
2020/12/21 07:28:35;;;;;;;13.93;2.95;;;17.40;58.40;;;;;;4853622;29;20053;-72
2020/12/21 07:31:11;;;;;;;13.27;2.70;;;17.40;58.30;;;;;;4847685;29;20038;-71
2020/12/21 07:33:48;;;;;;;8.00;2.45;;;17.40;58.10;;;;;;4844744;29;20102;-72
2020/12/21 07:36:15;;;;;;;9.77;2.72;;;17.40;57.90;;;;;;4850657;29;20053;-71
2020/12/21 07:38:41;;;;;;;13.75;2.85;;;17.50;58.00;;;;;;4861561;29;20382;-74
2020/12/21 07:41:08;;;;;;;14.05;2.80;;;17.50;57.90;;;;;;4849120;29;20129;-71
2020/12/21 07:43:37;;;;;;;12.45;2.45;;;17.50;57.90;;;;;;4845137;29;20187;-71
2020/12/21 07:46:08;;;;;;;8.20;3.33;;;17.50;57.80;;;;;;4847423;29;20066;-72
2020/12/21 07:48:35;;;;;;;10.52;2.28;;;17.50;57.90;;;;;;4863380;29;20042;-71
2020/12/21 07:51:04;;;;;;;9.10;2.45;;;17.40;57.70;;;;;;4850461;29;20098;-71
2020/12/21 07:53:32;;;;;;;8.55;2.33;;;17.50;57.70;;;;;;4843284;29;20061;-72
2020/12/21 07:55:59;;;;;;;8.45;2.40;;;17.50;57.60;;;;;;4846664;29;20117;-72
2020/12/21 07:58:25;;;;;;;12.07;2.42;;;17.50;57.60;;;;;;4831877;29;20121;-71
2020/12/21 08:00:56;;;;;;;9.65;2.20;;;17.60;57.50;;;;;;4826541;29;20051;-73
2020/12/21 08:03:24;;;;;;;14.65;2.30;;;17.60;57.50;;;;;;4837617;29;20048;-73
2020/12/21 08:05:51;;;;;;;8.88;2.00;;;17.70;57.50;;;;;;4843277;29;20050;-72
2020/12/21 08:08:22;;;;;;;14.38;2.50;;;17.80;57.60;;;;;;4836640;29;20046;-74
2020/12/21 08:10:58;;;;;;;9.05;1.85;;;17.80;57.40;;;;;;4839090;29;20046;-73
2020/12/21 08:13:24;;;;;;;9.32;2.45;;;17.80;57.40;;;;;;4839116;29;20114;-73
2020/12/21 08:15:50;;;;;;;8.00;1.90;;;17.80;57.30;;;;;;4834596;29;20046;-73
2020/12/21 08:18:16;;;;;;;6.22;2.00;;;17.90;57.30;;;;;;4854574;29;20054;-73
2020/12/21 08:20:51;;;;;;;8.30;2.08;;;17.90;57.30;;;;;;4862200;29;20060;-73
2020/12/21 08:23:22;;;;;;;6.43;2.78;;;17.90;57.30;;;;;;4862810;29;20064;-72
2020/12/21 08:25:48;;;;;;;5.93;2.03;;;17.90;57.20;;;;;;4864463;29;20057;-72
2020/12/21 08:28:34;;;;;;;8.35;1.75;;;17.90;57.40;;;;;;4863754;29;20068;-71
2020/12/21 08:31:07;;;;;;;7.45;2.15;;;17.80;57.50;;;;;;4865994;29;20121;-71
2020/12/21 08:33:34;;;;;;;11.25;2.20;;;17.80;57.60;;;;;;4863378;29;20057;-70
2020/12/21 08:36:18;;;;;;;7.28;1.90;;;17.70;57.70;;;;;;4863528;29;20054;-71
2020/12/21 08:38:44;;;;;;;7.50;1.42;;;17.70;57.80;;;;;;4865838;29;20063;-71
2020/12/21 08:41:10;;;;;;;9.38;2.15;;;17.70;58.00;;;;;;4865935;29;20148;-71
2020/12/21 08:43:37;;;;;;;8.20;2.05;;;17.70;58.00;;;;;;4864385;29;20510;-72
2020/12/21 08:46:10;;;;;;;6.95;2.33;;;17.60;58.00;;;;;;4865183;29;20471;-72
2020/12/21 08:48:37;;;;;;;11.80;2.30;;;17.60;58.10;;;;;;4866542;29;20045;-73
2020/12/21 08:51:03;;;;;;;15.82;2.83;;;17.60;58.20;;;;;;4866253;29;20349;-71
2020/12/21 08:53:29;;;;;;;12.52;2.70;;;17.60;58.20;;;;;;4865732;29;20064;-72
2020/12/21 08:55:55;;;;;;;12.32;2.05;;;17.50;58.10;;;;;;4865957;29;20057;-72
2020/12/21 08:58:20;;;;;;;5.95;1.85;;;17.50;58.10;;;;;;4866314;29;20124;-74
2020/12/21 09:00:47;;;;;;;12.80;1.92;;;17.60;58.10;;;;;;4866214;29;20081;-72
2020/12/21 09:03:12;;;;;;;11.35;2.22;;;17.60;58.10;;;;;;4865975;29;20085;-74
2020/12/21 09:05:38;;;;;;;11.02;1.67;;;17.50;58.00;;;;;;4865698;29;20109;-74
2020/12/21 09:08:04;;;;;;;7.30;1.98;;;17.60;58.00;;;;;;4866006;29;20050;-74
2020/12/21 09:10:30;;;;;;;7.15;1.60;;;17.50;57.90;;;;;;4865858;29;20425;-74
2020/12/21 09:12:55;;;;;;;6.03;1.80;;;17.60;58.00;;;;;;4865312;29;20451;-73
2020/12/21 09:15:21;;;;;;;6.13;1.92;;;17.50;58.00;;;;;;4865445;29;20081;-72
2020/12/21 09:17:47;;;;;;;4.78;1.50;;;17.60;58.00;;;;;;4865741;29;20109;-72
2020/12/21 09:20:13;;;;;;;5.20;1.63;;;17.50;57.90;;;;;;4866019;29;20069;-72
2020/12/21 09:22:39;;;;;;;5.32;1.67;;;17.50;57.80;;;;;;4866031;29;20463;-72
2020/12/21 09:25:04;;;;;;;5.70;1.42;;;17.50;57.80;;;;;;4865512;29;20056;-74
2020/12/21 09:27:30;;;;;;;4.63;1.70;;;17.60;57.90;;;;;;4865249;29;20062;-76
2020/12/21 09:29:56;;;;;;;4.07;1.40;;;17.60;57.90;;;;;;4865281;29;20108;-72
2020/12/21 09:32:22;;;;;;;4.75;1.80;;;17.60;58.00;;;;;;4865503;29;20522;-74
2020/12/21 09:34:48;;;;;;;7.78;2.20;;;17.50;58.00;;;;;;4865219;29;20548;-74
2020/12/21 09:37:14;;;;;;;5.50;1.90;;;17.60;58.20;;;;;;4865686;29;20049;-74
2020/12/21 09:39:40;;;;;;;5.25;1.80;;;17.60;58.10;;;;;;4865294;29;20479;-71
2020/12/21 09:42:05;;;;;;;8.98;2.20;;;17.50;57.80;;;;;;4864787;29;20077;-72
2020/12/21 09:44:31;;;;;;;4.53;2.00;;;17.60;57.80;;;;;;4865103;29;20383;-72
2020/12/21 09:46:57;;;;;;;5.72;1.80;;;17.60;57.80;;;;;;4865010;29;20056;-71
2020/12/21 09:49:23;;;;;;;7.70;2.13;;;17.50;57.70;;;;;;4865071;29;20068;-72
2020/12/21 09:51:52;;;;;;;4.43;1.63;;;17.50;57.70;;;;;;4865298;29;20045;-71
2020/12/21 09:54:19;;;;;;;4.38;1.65;;;17.50;57.70;;;;;;4864552;29;20107;-71
2020/12/21 09:56:51;;;;;;;4.72;1.83;;;17.60;57.60;;;;;;4864475;29;20379;-71
2020/12/21 09:59:16;;;;;;;7.35;2.03;;;17.60;57.50;;;;;;4864709;29;20069;-71
2020/12/21 10:01:43;;;;;;;6.07;1.92;;;17.60;57.50;;;;;;4864744;29;20077;-72
2020/12/21 10:04:09;;;;;;;5.78;1.90;;;17.60;57.60;;;;;;4864672;29;20091;-71
2020/12/21 10:06:34;;;;;;;6.78;1.25;;;17.60;57.60;;;;;;4864635;29;20053;-71
2020/12/21 10:09:00;;;;;;;5.05;1.58;;;17.60;57.50;;;;;;4863535;29;20057;-73
2020/12/21 10:11:26;;;;;;;8.20;2.03;;;17.60;57.40;;;;;;4864155;29;20088;-72
2020/12/21 10:13:52;;;;;;;7.13;1.73;;;17.60;57.50;;;;;;4864130;29;20042;-71
2020/12/21 10:16:17;;;;;;;7.13;2.10;;;17.50;57.30;;;;;;4864439;29;20081;-74
2020/12/21 10:18:43;;;;;;;7.18;2.28;;;17.60;57.30;;;;;;4864149;29;20110;-72
2020/12/21 10:21:09;;;;;;;5.10;1.38;;;17.60;57.20;;;;;;4863873;29;20061;-71
2020/12/21 10:23:35;;;;;;;6.10;1.90;;;17.60;57.30;;;;;;4863391;29;20052;-72
2020/12/21 10:26:01;;;;;;;7.25;1.95;;;17.50;57.20;;;;;;4862995;29;20478;-71
2020/12/21 10:28:27;;;;;;;9.52;1.75;;;17.60;57.20;;;;;;4862974;29;20121;-71
2020/12/21 10:30:52;;;;;;;5.40;1.83;;;17.60;57.40;;;;;;4863053;29;20047;-71
2020/12/21 10:33:18;;;;;;;6.65;1.73;;;17.60;57.40;;;;;;4863487;29;20045;-72
2020/12/21 10:35:44;;;;;;;7.70;2.45;;;17.60;57.30;;;;;;4859925;29;20048;-72
2020/12/21 10:38:10;;;;;;;24.63;3.20;;;17.60;57.50;;;;;;4868588;29;20049;-71
2020/12/21 10:40:36;;;;;;;14.48;2.80;;;17.60;57.20;;;;;;4863816;29;20049;-71
2020/12/21 10:43:01;;;;;;;16.70;2.38;;;17.60;57.30;;;;;;4863622;29;20049;-70
2020/12/21 10:45:27;;;;;;;17.13;2.25;;;17.60;57.40;;;;;;4861701;29;20045;-73
2020/12/21 10:47:53;;;;;;;29.05;3.58;;;17.60;57.50;;;;;;4856243;29;20057;-73
2020/12/21 10:50:19;;;;;;;15.45;2.25;;;17.60;57.60;;;;;;4862982;29;20056;-74
2020/12/21 10:52:45;;;;;;;13.23;2.75;;;17.60;57.60;;;;;;4863026;29;20045;-72
2020/12/21 10:55:11;;;;;;;12.60;2.28;;;17.50;57.30;;;;;;4865766;29;20455;-73
2020/12/21 10:57:37;;;;;;;7.75;2.53;;;17.50;57.50;;;;;;4845532;29;20353;-71
2020/12/21 11:00:06;;;;;;;11.05;2.15;;;17.60;57.60;;;;;;4850853;29;20070;-72
2020/12/21 11:02:32;;;;;;;11.77;2.75;;;17.60;57.50;;;;;;4859401;29;20133;-75
2020/12/21 11:04:58;;;;;;;10.10;2.22;;;17.50;57.50;;;;;;4854921;29;20462;-71
2020/12/21 11:07:23;;;;;;;8.93;2.40;;;17.50;57.40;;;;;;4865878;29;20116;-71
2020/12/21 11:09:49;;;;;;;86.72;7.18;;;17.50;57.50;;;;;;4856865;29;20041;-71
2020/12/21 11:12:15;;;;;;;40.55;5.28;;;17.40;57.40;;;;;;4862451;29;20117;-69
2020/12/21 11:14:40;;;;;;;22.08;4.15;;;17.40;57.50;;;;;;4862379;29;20049;-70
2020/12/21 11:17:06;;;;;;;14.57;3.05;;;17.40;57.40;;;;;;4862382;29;20057;-73
2020/12/21 11:19:32;;;;;;;13.88;3.20;;;17.40;57.40;;;;;;4864472;29;20053;-72
2020/12/21 11:21:58;;;;;;;18.88;2.88;;;17.40;57.30;;;;;;4851317;29;20056;-71
2020/12/21 11:24:25;;;;;;;8.85;2.63;;;17.40;57.40;;;;;;4853987;29;20074;-71
2020/12/21 11:26:51;;;;;;;9.35;2.17;;;17.40;57.40;;;;;;4854143;29;20052;-73
2020/12/21 11:29:17;;;;;;;9.80;2.15;;;17.40;57.10;;;;;;4852843;29;20121;-70
2020/12/21 11:31:43;;;;;;;13.15;2.33;;;17.40;56.90;;;;;;4861841;29;20132;-75
2020/12/21 11:34:09;;;;;;;6.90;2.00;;;17.40;57.10;;;;;;4854143;29;20068;-72
2020/12/21 11:36:34;;;;;;;11.98;2.22;;;17.40;57.20;;;;;;4844905;29;20065;-72
2020/12/21 11:39:00;;;;;;;11.60;3.30;;;17.40;57.30;;;;;;4847111;29;20160;-72
2020/12/21 11:41:30;;;;;;;7.95;2.33;;;17.40;57.40;;;;;;4849820;29;20041;-72
2020/12/21 11:43:56;;;;;;;7.50;3.33;;;17.40;57.40;;;;;;4849283;29;20450;-73
2020/12/21 11:46:29;;;;;;;7.32;2.58;;;17.40;57.30;;;;;;4863194;29;20464;-74
2020/12/21 11:48:55;;;;;;;8.35;2.38;;;17.30;57.40;;;;;;4863029;29;20061;-73
2020/12/21 11:51:21;;;;;;;10.65;2.35;;;17.30;57.10;;;;;;4863361;29;20506;-74
2020/12/21 11:53:46;;;;;;;8.55;2.40;;;17.40;57.60;;;;;;4861468;29;20041;-75
2020/12/21 11:56:17;;;;;;;9.45;2.33;;;17.40;57.50;;;;;;4861404;29;20045;-73
2020/12/21 11:58:42;;;;;;;8.63;1.98;;;17.50;57.80;;;;;;4863729;29;20071;-72
2020/12/21 12:01:08;;;;;;;13.32;2.33;;;17.50;57.90;;;;;;4862429;29;20464;-71
2020/12/21 12:03:34;;;;;;;10.57;2.20;;;17.60;58.10;;;;;;4862395;29;20050;-72
2020/12/21 12:06:01;;;;;;;8.73;2.15;;;17.70;58.40;;;;;;4862846;29;20057;-74
2020/12/21 12:08:26;;;;;;;9.68;2.38;;;17.80;58.50;;;;;;4862060;29;20118;-73
2020/12/21 12:10:52;;;;;;;8.73;2.30;;;17.80;58.70;;;;;;4862688;29;20451;-73
2020/12/21 12:13:18;;;;;;;10.85;2.35;;;17.90;58.90;;;;;;4862948;29;20084;-74
2020/12/21 12:15:43;;;;;;;9.27;2.10;;;17.90;58.90;;;;;;4862293;29;20061;-73
2020/12/21 12:18:09;;;;;;;7.88;2.20;;;18.00;59.00;;;;;;4862652;29;20475;-75
2020/12/21 12:20:35;;;;;;;10.05;2.13;;;18.00;59.10;;;;;;4862169;29;20062;-74
2020/12/21 12:23:01;;;;;;;6.50;2.08;;;18.00;59.10;;;;;;4862812;29;20053;-73
2020/12/21 12:25:27;;;;;;;9.02;1.70;;;18.10;59.30;;;;;;4862295;29;20064;-77
2020/12/21 12:27:53;;;;;;;8.13;1.65;;;18.10;59.30;;;;;;4860100;29;20133;-76
2020/12/21 12:30:19;;;;;;;5.65;1.60;;;18.10;59.30;;;;;;4862597;29;20050;-75
2020/12/21 12:32:44;;;;;;;4.97;2.00;;;18.10;59.30;;;;;;4862267;29;20033;-76
2020/12/21 12:35:10;;;;;;;8.93;2.25;;;18.00;59.30;;;;;;4849622;29;20438;-75
2020/12/21 12:37:36;;;;;;;6.10;1.70;;;18.00;59.30;;;;;;4848106;29;20068;-76
2020/12/21 12:40:03;;;;;;;9.18;2.08;;;18.00;59.50;;;;;;4862310;29;20073;-75
2020/12/21 12:42:29;;;;;;;8.20;2.30;;;17.90;59.30;;;;;;4862617;29;20447;-74
2020/12/21 12:44:54;;;;;;;8.57;2.08;;;17.90;59.30;;;;;;4861748;29;20120;-76